sensor_id;sensor_type;location;lat;lon;timestamp;temperature;humidity
21123;DHT22;10719;48.130;11.630;2022-07-23T00:00:15;23.80;99.90
21123;DHT22;10719;48.130;11.630;2022-07-23T00:02:42;23.80;99.90
21123;DHT22;10719;48.130;11.630;2022-07-23T00:05:08;23.70;99.90
21123;DHT22;10719;48.130;11.630;2022-07-23T00:07:33;23.60;99.90
21123;DHT22;10719;48.130;11.630;2022-07-23T00:09:59;23.70;99.90
21123;DHT22;10719;48.130;11.630;2022-07-23T00:12:25;23.70;99.90
21123;DHT22;10719;48.130;11.630;2022-07-23T00:14:51;23.60;99.90
21123;DHT22;10719;48.130;11.630;2022-07-23T00:17:16;23.60;99.90
21123;DHT22;10719;48.130;11.630;2022-07-23T00:19:42;23.70;99.90
21123;DHT22;10719;48.130;11.630;2022-07-23T00:22:08;23.60;99.90
21123;DHT22;10719;48.130;11.630;2022-07-23T00:24:33;23.60;99.90
21123;DHT22;10719;48.130;11.630;2022-07-23T00:26:59;23.60;99.90
21123;DHT22;10719;48.130;11.630;2022-07-23T00:29:24;23.60;99.90
21123;DHT22;10719;48.130;11.630;2022-07-23T00:31:50;23.60;99.90
21123;DHT22;10719;48.130;11.630;2022-07-23T00:34:16;23.60;99.90
21123;DHT22;10719;48.130;11.630;2022-07-23T00:36:41;23.60;99.90
21123;DHT22;10719;48.130;11.630;2022-07-23T00:39:07;23.60;99.90
21123;DHT22;10719;48.130;11.630;2022-07-23T00:41:33;23.60;99.90
21123;DHT22;10719;48.130;11.630;2022-07-23T00:44:23;23.70;99.90
21123;DHT22;10719;48.130;11.630;2022-07-23T00:46:53;23.60;99.90
21123;DHT22;10719;48.130;11.630;2022-07-23T00:49:21;23.60;99.90
21123;DHT22;10719;48.130;11.630;2022-07-23T00:51:48;23.60;99.90
21123;DHT22;10719;48.130;11.630;2022-07-23T00:54:14;23.60;99.90
21123;DHT22;10719;48.130;11.630;2022-07-23T00:56:42;23.60;99.90
21123;DHT22;10719;48.130;11.630;2022-07-23T00:59:08;23.60;99.90
21123;DHT22;10719;48.130;11.630;2022-07-23T01:01:34;23.60;99.90
21123;DHT22;10719;48.130;11.630;2022-07-23T01:04:00;23.60;99.90
21123;DHT22;10719;48.130;11.630;2022-07-23T01:06:25;23.70;99.90
21123;DHT22;10719;48.130;11.630;2022-07-23T01:08:51;23.60;99.90
21123;DHT22;10719;48.130;11.630;2022-07-23T01:11:18;23.50;99.90
21123;DHT22;10719;48.130;11.630;2022-07-23T01:13:44;23.60;99.90
21123;DHT22;10719;48.130;11.630;2022-07-23T01:16:10;23.50;99.90
21123;DHT22;10719;48.130;11.630;2022-07-23T01:18:36;23.50;99.90
21123;DHT22;10719;48.130;11.630;2022-07-23T01:21:02;23.50;99.90
21123;DHT22;10719;48.130;11.630;2022-07-23T01:23:27;23.60;99.90
21123;DHT22;10719;48.130;11.630;2022-07-23T01:25:53;23.60;99.90
21123;DHT22;10719;48.130;11.630;2022-07-23T01:28:19;23.70;99.90
21123;DHT22;10719;48.130;11.630;2022-07-23T01:30:45;23.60;99.90
21123;DHT22;10719;48.130;11.630;2022-07-23T01:33:11;23.40;99.90
21123;DHT22;10719;48.130;11.630;2022-07-23T01:35:37;23.20;99.90
21123;DHT22;10719;48.130;11.630;2022-07-23T01:38:02;22.90;99.90
21123;DHT22;10719;48.130;11.630;2022-07-23T01:40:28;22.50;99.90
21123;DHT22;10719;48.130;11.630;2022-07-23T01:42:54;22.20;99.90
21123;DHT22;10719;48.130;11.630;2022-07-23T01:45:20;22.00;99.90
21123;DHT22;10719;48.130;11.630;2022-07-23T01:47:46;22.00;99.90
21123;DHT22;10719;48.130;11.630;2022-07-23T01:50:12;22.00;99.90
21123;DHT22;10719;48.130;11.630;2022-07-23T01:52:38;21.90;99.90
21123;DHT22;10719;48.130;11.630;2022-07-23T01:55:04;21.80;99.90
21123;DHT22;10719;48.130;11.630;2022-07-23T01:57:31;21.70;99.90
21123;DHT22;10719;48.130;11.630;2022-07-23T01:59:56;21.60;99.90
21123;DHT22;10719;48.130;11.630;2022-07-23T02:02:22;21.30;99.90
21123;DHT22;10719;48.130;11.630;2022-07-23T02:04:48;21.30;99.90
21123;DHT22;10719;48.130;11.630;2022-07-23T02:07:13;21.20;99.90
21123;DHT22;10719;48.130;11.630;2022-07-23T02:09:39;21.10;99.90
21123;DHT22;10719;48.130;11.630;2022-07-23T02:12:04;21.20;99.90
21123;DHT22;10719;48.130;11.630;2022-07-23T02:14:30;21.10;99.90
21123;DHT22;10719;48.130;11.630;2022-07-23T02:16:56;21.00;99.90
21123;DHT22;10719;48.130;11.630;2022-07-23T02:19:22;20.80;99.90
21123;DHT22;10719;48.130;11.630;2022-07-23T02:21:48;20.60;99.90
21123;DHT22;10719;48.130;11.630;2022-07-23T02:24:14;20.40;99.90
21123;DHT22;10719;48.130;11.630;2022-07-23T02:26:40;20.20;99.90
21123;DHT22;10719;48.130;11.630;2022-07-23T02:29:06;20.10;99.90
21123;DHT22;10719;48.130;11.630;2022-07-23T02:31:31;20.00;99.90
21123;DHT22;10719;48.130;11.630;2022-07-23T02:33:57;20.00;99.90
21123;DHT22;10719;48.130;11.630;2022-07-23T02:36:23;19.80;99.90
21123;DHT22;10719;48.130;11.630;2022-07-23T02:38:49;19.80;99.90
21123;DHT22;10719;48.130;11.630;2022-07-23T02:41:14;19.80;99.90
21123;DHT22;10719;48.130;11.630;2022-07-23T02:43:40;19.80;99.90
21123;DHT22;10719;48.130;11.630;2022-07-23T02:46:05;19.70;99.90
21123;DHT22;10719;48.130;11.630;2022-07-23T02:48:31;19.70;99.90
21123;DHT22;10719;48.130;11.630;2022-07-23T02:50:56;19.70;99.90
21123;DHT22;10719;48.130;11.630;2022-07-23T02:53:23;19.70;99.90
21123;DHT22;10719;48.130;11.630;2022-07-23T02:55:48;19.60;99.90
21123;DHT22;10719;48.130;11.630;2022-07-23T02:58:14;19.60;99.90
21123;DHT22;10719;48.130;11.630;2022-07-23T03:00:40;19.60;99.90
21123;DHT22;10719;48.130;11.630;2022-07-23T03:03:05;19.60;99.90
21123;DHT22;10719;48.130;11.630;2022-07-23T03:05:32;19.60;99.90
21123;DHT22;10719;48.130;11.630;2022-07-23T03:07:57;19.50;99.90
21123;DHT22;10719;48.130;11.630;2022-07-23T03:10:23;19.30;99.90
21123;DHT22;10719;48.130;11.630;2022-07-23T03:12:49;19.20;99.90
21123;DHT22;10719;48.130;11.630;2022-07-23T03:15:14;19.00;99.90
21123;DHT22;10719;48.130;11.630;2022-07-23T03:17:40;19.00;99.90
21123;DHT22;10719;48.130;11.630;2022-07-23T03:20:06;18.90;99.90
21123;DHT22;10719;48.130;11.630;2022-07-23T03:22:32;18.80;99.90
21123;DHT22;10719;48.130;11.630;2022-07-23T03:24:57;18.70;99.90
21123;DHT22;10719;48.130;11.630;2022-07-23T03:27:28;18.70;99.90
21123;DHT22;10719;48.130;11.630;2022-07-23T03:29:55;18.70;99.90
21123;DHT22;10719;48.130;11.630;2022-07-23T03:32:22;18.60;99.90
21123;DHT22;10719;48.130;11.630;2022-07-23T03:34:48;18.70;99.90
21123;DHT22;10719;48.130;11.630;2022-07-23T03:37:14;18.60;99.90
21123;DHT22;10719;48.130;11.630;2022-07-23T03:39:40;18.60;99.90
21123;DHT22;10719;48.130;11.630;2022-07-23T03:42:06;18.60;99.90
21123;DHT22;10719;48.130;11.630;2022-07-23T03:44:32;18.50;99.90
21123;DHT22;10719;48.130;11.630;2022-07-23T03:46:57;18.50;99.90
21123;DHT22;10719;48.130;11.630;2022-07-23T03:49:23;18.50;99.90
21123;DHT22;10719;48.130;11.630;2022-07-23T03:51:49;18.60;99.90
21123;DHT22;10719;48.130;11.630;2022-07-23T03:54:14;18.70;99.90
21123;DHT22;10719;48.130;11.630;2022-07-23T03:56:40;18.60;99.90
21123;DHT22;10719;48.130;11.630;2022-07-23T03:59:06;18.70;99.90
21123;DHT22;10719;48.130;11.630;2022-07-23T04:01:32;18.70;99.90
21123;DHT22;10719;48.130;11.630;2022-07-23T04:03:57;18.70;99.90
21123;DHT22;10719;48.130;11.630;2022-07-23T04:06:23;18.80;99.90
21123;DHT22;10719;48.130;11.630;2022-07-23T04:08:49;18.80;99.90
21123;DHT22;10719;48.130;11.630;2022-07-23T04:11:14;18.80;99.90
21123;DHT22;10719;48.130;11.630;2022-07-23T04:13:40;18.90;99.90
21123;DHT22;10719;48.130;11.630;2022-07-23T04:16:05;18.90;99.90
21123;DHT22;10719;48.130;11.630;2022-07-23T04:18:31;19.00;99.90
21123;DHT22;10719;48.130;11.630;2022-07-23T04:20:57;19.00;99.90
21123;DHT22;10719;48.130;11.630;2022-07-23T04:23:23;19.00;99.90
21123;DHT22;10719;48.130;11.630;2022-07-23T04:25:48;19.00;99.90
21123;DHT22;10719;48.130;11.630;2022-07-23T04:28:14;19.00;99.90
21123;DHT22;10719;48.130;11.630;2022-07-23T04:30:40;19.00;99.90
21123;DHT22;10719;48.130;11.630;2022-07-23T04:33:05;19.10;99.90
21123;DHT22;10719;48.130;11.630;2022-07-23T04:35:33;19.10;99.90
21123;DHT22;10719;48.130;11.630;2022-07-23T04:37:59;19.10;99.90
21123;DHT22;10719;48.130;11.630;2022-07-23T04:40:25;19.10;99.90
21123;DHT22;10719;48.130;11.630;2022-07-23T04:42:51;19.00;99.90
21123;DHT22;10719;48.130;11.630;2022-07-23T04:45:16;19.10;99.90
21123;DHT22;10719;48.130;11.630;2022-07-23T04:47:42;19.00;99.90
21123;DHT22;10719;48.130;11.630;2022-07-23T04:50:08;19.00;99.90
21123;DHT22;10719;48.130;11.630;2022-07-23T04:52:33;19.00;99.90
21123;DHT22;10719;48.130;11.630;2022-07-23T04:54:59;19.00;99.90
21123;DHT22;10719;48.130;11.630;2022-07-23T04:57:25;19.00;99.90
21123;DHT22;10719;48.130;11.630;2022-07-23T04:59:50;19.00;99.90
21123;DHT22;10719;48.130;11.630;2022-07-23T05:02:16;19.10;99.90
21123;DHT22;10719;48.130;11.630;2022-07-23T05:04:41;19.20;99.90
21123;DHT22;10719;48.130;11.630;2022-07-23T05:07:07;19.10;99.90
21123;DHT22;10719;48.130;11.630;2022-07-23T05:09:33;19.20;99.90
21123;DHT22;10719;48.130;11.630;2022-07-23T05:11:59;19.20;99.90
21123;DHT22;10719;48.130;11.630;2022-07-23T05:14:25;19.20;99.90
21123;DHT22;10719;48.130;11.630;2022-07-23T05:16:51;19.30;99.90
21123;DHT22;10719;48.130;11.630;2022-07-23T05:19:16;19.30;99.90
21123;DHT22;10719;48.130;11.630;2022-07-23T05:21:42;19.30;99.90
21123;DHT22;10719;48.130;11.630;2022-07-23T05:24:08;19.40;99.90
21123;DHT22;10719;48.130;11.630;2022-07-23T05:26:33;19.50;99.90
21123;DHT22;10719;48.130;11.630;2022-07-23T05:28:59;19.50;99.90
21123;DHT22;10719;48.130;11.630;2022-07-23T05:31:24;19.50;99.90
21123;DHT22;10719;48.130;11.630;2022-07-23T05:33:50;19.50;99.90
21123;DHT22;10719;48.130;11.630;2022-07-23T05:36:16;19.60;99.90
21123;DHT22;10719;48.130;11.630;2022-07-23T05:38:41;19.60;99.90
21123;DHT22;10719;48.130;11.630;2022-07-23T05:41:07;19.60;99.90
21123;DHT22;10719;48.130;11.630;2022-07-23T05:43:32;19.70;99.90
21123;DHT22;10719;48.130;11.630;2022-07-23T05:45:58;19.70;99.90
21123;DHT22;10719;48.130;11.630;2022-07-23T05:48:24;19.90;99.90
21123;DHT22;10719;48.130;11.630;2022-07-23T05:50:49;20.00;99.90
21123;DHT22;10719;48.130;11.630;2022-07-23T05:53:15;20.00;99.90
21123;DHT22;10719;48.130;11.630;2022-07-23T05:55:41;20.00;99.90
21123;DHT22;10719;48.130;11.630;2022-07-23T05:58:06;20.00;99.90
21123;DHT22;10719;48.130;11.630;2022-07-23T06:00:32;20.10;99.90
21123;DHT22;10719;48.130;11.630;2022-07-23T06:02:58;20.10;99.90
21123;DHT22;10719;48.130;11.630;2022-07-23T06:05:23;20.20;99.90
21123;DHT22;10719;48.130;11.630;2022-07-23T06:07:49;20.20;99.90
21123;DHT22;10719;48.130;11.630;2022-07-23T06:10:15;20.20;99.90
21123;DHT22;10719;48.130;11.630;2022-07-23T06:12:41;20.30;99.90
21123;DHT22;10719;48.130;11.630;2022-07-23T06:15:07;20.30;99.90
21123;DHT22;10719;48.130;11.630;2022-07-23T06:17:33;20.30;99.90
21123;DHT22;10719;48.130;11.630;2022-07-23T06:19:59;20.30;99.90
21123;DHT22;10719;48.130;11.630;2022-07-23T06:22:24;20.30;99.90
21123;DHT22;10719;48.130;11.630;2022-07-23T06:24:50;20.20;99.90
21123;DHT22;10719;48.130;11.630;2022-07-23T06:27:17;20.10;99.90
21123;DHT22;10719;48.130;11.630;2022-07-23T06:29:43;20.00;99.90
21123;DHT22;10719;48.130;11.630;2022-07-23T06:32:09;20.00;99.90
21123;DHT22;10719;48.130;11.630;2022-07-23T06:34:35;20.00;99.90
21123;DHT22;10719;48.130;11.630;2022-07-23T06:37:00;20.00;99.90
21123;DHT22;10719;48.130;11.630;2022-07-23T06:39:26;20.00;99.90
21123;DHT22;10719;48.130;11.630;2022-07-23T06:41:52;19.90;99.90
21123;DHT22;10719;48.130;11.630;2022-07-23T06:44:18;19.90;99.90
21123;DHT22;10719;48.130;11.630;2022-07-23T06:46:44;19.90;99.90
21123;DHT22;10719;48.130;11.630;2022-07-23T06:49:09;20.00;99.90
21123;DHT22;10719;48.130;11.630;2022-07-23T06:51:35;20.00;99.90
21123;DHT22;10719;48.130;11.630;2022-07-23T06:54:01;20.10;99.90
21123;DHT22;10719;48.130;11.630;2022-07-23T06:56:27;20.20;99.90
21123;DHT22;10719;48.130;11.630;2022-07-23T06:58:53;20.30;99.90
21123;DHT22;10719;48.130;11.630;2022-07-23T07:01:19;20.40;99.90
21123;DHT22;10719;48.130;11.630;2022-07-23T07:03:44;20.40;99.90
21123;DHT22;10719;48.130;11.630;2022-07-23T07:06:10;20.50;99.90
21123;DHT22;10719;48.130;11.630;2022-07-23T07:08:36;20.70;99.90
21123;DHT22;10719;48.130;11.630;2022-07-23T07:11:01;20.70;99.90
21123;DHT22;10719;48.130;11.630;2022-07-23T07:13:27;20.70;99.90
21123;DHT22;10719;48.130;11.630;2022-07-23T07:15:52;20.70;99.90
21123;DHT22;10719;48.130;11.630;2022-07-23T07:18:18;20.70;99.90
21123;DHT22;10719;48.130;11.630;2022-07-23T07:20:44;20.70;99.90
21123;DHT22;10719;48.130;11.630;2022-07-23T07:23:09;20.80;99.90
21123;DHT22;10719;48.130;11.630;2022-07-23T07:25:35;20.90;99.90
21123;DHT22;10719;48.130;11.630;2022-07-23T07:28:01;20.90;99.90
21123;DHT22;10719;48.130;11.630;2022-07-23T07:30:26;20.90;99.90
21123;DHT22;10719;48.130;11.630;2022-07-23T07:32:52;21.00;99.90
21123;DHT22;10719;48.130;11.630;2022-07-23T07:35:17;21.10;99.90
21123;DHT22;10719;48.130;11.630;2022-07-23T07:37:43;21.10;99.90
21123;DHT22;10719;48.130;11.630;2022-07-23T07:40:09;21.10;99.90
21123;DHT22;10719;48.130;11.630;2022-07-23T07:42:43;21.10;99.90
21123;DHT22;10719;48.130;11.630;2022-07-23T07:45:09;21.10;99.90
21123;DHT22;10719;48.130;11.630;2022-07-23T07:47:34;21.10;99.90
21123;DHT22;10719;48.130;11.630;2022-07-23T07:50:00;21.10;99.90
21123;DHT22;10719;48.130;11.630;2022-07-23T07:52:26;21.00;99.90
21123;DHT22;10719;48.130;11.630;2022-07-23T07:54:52;20.90;99.90
21123;DHT22;10719;48.130;11.630;2022-07-23T07:57:17;20.90;99.90
21123;DHT22;10719;48.130;11.630;2022-07-23T07:59:43;20.90;99.90
21123;DHT22;10719;48.130;11.630;2022-07-23T08:02:08;20.90;99.90
21123;DHT22;10719;48.130;11.630;2022-07-23T08:04:34;20.90;99.90
21123;DHT22;10719;48.130;11.630;2022-07-23T08:07:00;20.90;99.90
21123;DHT22;10719;48.130;11.630;2022-07-23T08:09:25;21.00;99.90
21123;DHT22;10719;48.130;11.630;2022-07-23T08:11:51;21.10;99.90
21123;DHT22;10719;48.130;11.630;2022-07-23T08:14:17;21.10;99.90
21123;DHT22;10719;48.130;11.630;2022-07-23T08:16:43;21.10;99.90
21123;DHT22;10719;48.130;11.630;2022-07-23T08:19:09;21.10;99.90
21123;DHT22;10719;48.130;11.630;2022-07-23T08:21:34;21.10;99.90
21123;DHT22;10719;48.130;11.630;2022-07-23T08:24:00;21.10;99.90
21123;DHT22;10719;48.130;11.630;2022-07-23T08:26:25;21.10;99.90
21123;DHT22;10719;48.130;11.630;2022-07-23T08:28:51;21.30;99.90
21123;DHT22;10719;48.130;11.630;2022-07-23T08:31:17;21.30;99.90
21123;DHT22;10719;48.130;11.630;2022-07-23T08:33:43;21.30;99.90
21123;DHT22;10719;48.130;11.630;2022-07-23T08:36:08;21.40;99.90
21123;DHT22;10719;48.130;11.630;2022-07-23T08:38:34;21.40;99.90
21123;DHT22;10719;48.130;11.630;2022-07-23T08:41:01;21.40;99.90
21123;DHT22;10719;48.130;11.630;2022-07-23T08:43:29;21.50;99.90
21123;DHT22;10719;48.130;11.630;2022-07-23T08:45:56;21.60;99.90
21123;DHT22;10719;48.130;11.630;2022-07-23T08:48:25;21.50;99.90
21123;DHT22;10719;48.130;11.630;2022-07-23T08:50:55;21.60;99.90
21123;DHT22;10719;48.130;11.630;2022-07-23T08:53:22;21.80;99.90
21123;DHT22;10719;48.130;11.630;2022-07-23T08:55:51;21.90;99.90
21123;DHT22;10719;48.130;11.630;2022-07-23T08:58:17;22.00;99.90
21123;DHT22;10719;48.130;11.630;2022-07-23T09:00:44;22.10;99.90
21123;DHT22;10719;48.130;11.630;2022-07-23T09:03:21;22.10;99.90
21123;DHT22;10719;48.130;11.630;2022-07-23T09:05:50;22.10;99.90
21123;DHT22;10719;48.130;11.630;2022-07-23T09:08:20;22.10;99.90
21123;DHT22;10719;48.130;11.630;2022-07-23T09:10:53;22.10;99.90
21123;DHT22;10719;48.130;11.630;2022-07-23T09:16:09;22.10;99.90
21123;DHT22;10719;48.130;11.630;2022-07-23T09:18:48;22.20;99.90
21123;DHT22;10719;48.130;11.630;2022-07-23T09:21:34;22.40;99.90
21123;DHT22;10719;48.130;11.630;2022-07-23T09:24:02;22.40;99.90
21123;DHT22;10719;48.130;11.630;2022-07-23T09:26:43;22.50;99.90
21123;DHT22;10719;48.130;11.630;2022-07-23T09:29:25;22.50;99.90
21123;DHT22;10719;48.130;11.630;2022-07-23T09:31:59;22.60;99.90
21123;DHT22;10719;48.130;11.630;2022-07-23T09:34:26;22.70;99.90
21123;DHT22;10719;48.130;11.630;2022-07-23T09:36:57;23.00;99.90
21123;DHT22;10719;48.130;11.630;2022-07-23T09:39:32;23.40;99.90
21123;DHT22;10719;48.130;11.630;2022-07-23T09:42:18;23.60;99.90
21123;DHT22;10719;48.130;11.630;2022-07-23T09:44:46;23.80;99.90
21123;DHT22;10719;48.130;11.630;2022-07-23T09:47:12;23.90;99.90
21123;DHT22;10719;48.130;11.630;2022-07-23T09:49:38;24.20;99.90
21123;DHT22;10719;48.130;11.630;2022-07-23T09:52:05;24.70;99.90
21123;DHT22;10719;48.130;11.630;2022-07-23T09:59:35;25.30;99.90
21123;DHT22;10719;48.130;11.630;2022-07-23T10:02:01;25.70;99.90
21123;DHT22;10719;48.130;11.630;2022-07-23T10:04:29;25.80;99.90
21123;DHT22;10719;48.130;11.630;2022-07-23T10:06:57;26.00;99.90
21123;DHT22;10719;48.130;11.630;2022-07-23T10:09:35;26.30;99.90
21123;DHT22;10719;48.130;11.630;2022-07-23T10:12:13;26.30;99.90
21123;DHT22;10719;48.130;11.630;2022-07-23T10:14:39;26.60;99.90
21123;DHT22;10719;48.130;11.630;2022-07-23T10:17:06;26.50;99.90
21123;DHT22;10719;48.130;11.630;2022-07-23T10:19:32;26.10;99.90
21123;DHT22;10719;48.130;11.630;2022-07-23T10:22:22;26.40;99.90
21123;DHT22;10719;48.130;11.630;2022-07-23T10:30:36;26.60;99.90
21123;DHT22;10719;48.130;11.630;2022-07-23T10:38:54;27.90;99.90
21123;DHT22;10719;48.130;11.630;2022-07-23T10:41:32;27.50;99.90
21123;DHT22;10719;48.130;11.630;2022-07-23T10:44:08;27.70;99.90
21123;DHT22;10719;48.130;11.630;2022-07-23T10:46:34;27.70;99.90
21123;DHT22;10719;48.130;11.630;2022-07-23T10:49:28;27.20;99.90
21123;DHT22;10719;48.130;11.630;2022-07-23T10:52:28;27.10;99.90
21123;DHT22;10719;48.130;11.630;2022-07-23T10:54:55;27.00;99.90
21123;DHT22;10719;48.130;11.630;2022-07-23T10:57:25;26.30;99.90
21123;DHT22;10719;48.130;11.630;2022-07-23T11:02:28;26.00;99.90
21123;DHT22;10719;48.130;11.630;2022-07-23T11:05:00;26.10;99.90
21123;DHT22;10719;48.130;11.630;2022-07-23T11:07:26;26.00;99.90
21123;DHT22;10719;48.130;11.630;2022-07-23T11:09:52;26.30;99.90
21123;DHT22;10719;48.130;11.630;2022-07-23T11:15:03;26.10;99.90
21123;DHT22;10719;48.130;11.630;2022-07-23T11:17:31;26.00;99.90
21123;DHT22;10719;48.130;11.630;2022-07-23T11:22:38;25.60;99.90
21123;DHT22;10719;48.130;11.630;2022-07-23T11:25:04;25.60;99.90
21123;DHT22;10719;48.130;11.630;2022-07-23T11:27:44;25.50;99.90
21123;DHT22;10719;48.130;11.630;2022-07-23T11:35:41;25.40;99.90
21123;DHT22;10719;48.130;11.630;2022-07-23T11:38:21;25.30;99.90
21123;DHT22;10719;48.130;11.630;2022-07-23T11:40:55;25.30;99.90
21123;DHT22;10719;48.130;11.630;2022-07-23T11:43:24;25.20;99.90
21123;DHT22;10719;48.130;11.630;2022-07-23T11:45:57;25.10;99.90
21123;DHT22;10719;48.130;11.630;2022-07-23T11:48:29;25.00;99.90
21123;DHT22;10719;48.130;11.630;2022-07-23T11:50:56;24.90;99.90
21123;DHT22;10719;48.130;11.630;2022-07-23T11:53:33;24.90;99.90
21123;DHT22;10719;48.130;11.630;2022-07-23T11:56:11;24.80;99.90
21123;DHT22;10719;48.130;11.630;2022-07-23T11:58:38;24.80;99.90
21123;DHT22;10719;48.130;11.630;2022-07-23T12:01:04;24.80;99.90
21123;DHT22;10719;48.130;11.630;2022-07-23T12:03:30;24.80;99.90
21123;DHT22;10719;48.130;11.630;2022-07-23T12:05:57;24.70;99.90
21123;DHT22;10719;48.130;11.630;2022-07-23T12:08:23;24.70;99.90
21123;DHT22;10719;48.130;11.630;2022-07-23T12:10:49;24.60;99.90
21123;DHT22;10719;48.130;11.630;2022-07-23T12:13:18;24.60;99.90
21123;DHT22;10719;48.130;11.630;2022-07-23T12:15:52;24.50;99.90
21123;DHT22;10719;48.130;11.630;2022-07-23T12:18:21;24.50;99.90
21123;DHT22;10719;48.130;11.630;2022-07-23T12:20:52;24.50;99.90
21123;DHT22;10719;48.130;11.630;2022-07-23T12:23:20;24.40;99.90
21123;DHT22;10719;48.130;11.630;2022-07-23T12:25:49;24.40;99.90
21123;DHT22;10719;48.130;11.630;2022-07-23T12:28:27;24.50;99.90
21123;DHT22;10719;48.130;11.630;2022-07-23T12:30:55;24.50;99.90
21123;DHT22;10719;48.130;11.630;2022-07-23T12:33:26;24.50;99.90
21123;DHT22;10719;48.130;11.630;2022-07-23T12:35:54;24.50;99.90
21123;DHT22;10719;48.130;11.630;2022-07-23T12:38:23;24.40;99.90
21123;DHT22;10719;48.130;11.630;2022-07-23T12:40:55;24.40;99.90
21123;DHT22;10719;48.130;11.630;2022-07-23T12:43:27;24.30;99.90
21123;DHT22;10719;48.130;11.630;2022-07-23T12:48:36;24.30;99.90
21123;DHT22;10719;48.130;11.630;2022-07-23T12:51:12;24.30;99.90
21123;DHT22;10719;48.130;11.630;2022-07-23T12:53:45;24.40;99.90
21123;DHT22;10719;48.130;11.630;2022-07-23T12:56:12;24.30;99.90
21123;DHT22;10719;48.130;11.630;2022-07-23T12:58:50;24.30;99.90
21123;DHT22;10719;48.130;11.630;2022-07-23T13:06:35;24.10;99.90
21123;DHT22;10719;48.130;11.630;2022-07-23T13:09:04;24.30;99.90
21123;DHT22;10719;48.130;11.630;2022-07-23T13:11:30;24.40;99.90
21123;DHT22;10719;48.130;11.630;2022-07-23T13:13:56;24.40;99.90
21123;DHT22;10719;48.130;11.630;2022-07-23T13:16:22;24.50;99.90
21123;DHT22;10719;48.130;11.630;2022-07-23T13:18:48;24.40;99.90
21123;DHT22;10719;48.130;11.630;2022-07-23T13:21:13;24.40;99.90
21123;DHT22;10719;48.130;11.630;2022-07-23T13:23:39;24.30;99.90
21123;DHT22;10719;48.130;11.630;2022-07-23T13:26:05;24.30;99.90
21123;DHT22;10719;48.130;11.630;2022-07-23T13:28:30;24.30;99.90
21123;DHT22;10719;48.130;11.630;2022-07-23T13:30:56;24.30;99.90
21123;DHT22;10719;48.130;11.630;2022-07-23T13:33:23;24.30;99.90
21123;DHT22;10719;48.130;11.630;2022-07-23T13:35:50;24.20;99.90
21123;DHT22;10719;48.130;11.630;2022-07-23T13:38:17;24.30;99.90
21123;DHT22;10719;48.130;11.630;2022-07-23T13:40:45;24.20;99.90
21123;DHT22;10719;48.130;11.630;2022-07-23T13:43:13;24.20;99.90
21123;DHT22;10719;48.130;11.630;2022-07-23T13:45:40;24.10;99.90
21123;DHT22;10719;48.130;11.630;2022-07-23T13:48:08;24.20;99.90
21123;DHT22;10719;48.130;11.630;2022-07-23T13:50:34;24.50;99.90
21123;DHT22;10719;48.130;11.630;2022-07-23T13:53:05;25.00;99.90
21123;DHT22;10719;48.130;11.630;2022-07-23T13:55:31;25.10;99.90
21123;DHT22;10719;48.130;11.630;2022-07-23T13:57:57;24.80;99.90
21123;DHT22;10719;48.130;11.630;2022-07-23T14:00:23;24.60;99.90
21123;DHT22;10719;48.130;11.630;2022-07-23T14:02:49;24.40;99.90
21123;DHT22;10719;48.130;11.630;2022-07-23T14:05:15;24.30;99.90
21123;DHT22;10719;48.130;11.630;2022-07-23T14:07:40;24.30;99.90
21123;DHT22;10719;48.130;11.630;2022-07-23T14:10:08;24.30;99.90
21123;DHT22;10719;48.130;11.630;2022-07-23T14:12:34;24.20;99.90
21123;DHT22;10719;48.130;11.630;2022-07-23T14:15:00;24.20;99.90
21123;DHT22;10719;48.130;11.630;2022-07-23T14:17:26;24.10;99.90
21123;DHT22;10719;48.130;11.630;2022-07-23T14:19:52;24.00;99.90
21123;DHT22;10719;48.130;11.630;2022-07-23T14:22:18;23.90;99.90
21123;DHT22;10719;48.130;11.630;2022-07-23T14:24:43;23.80;99.90
21123;DHT22;10719;48.130;11.630;2022-07-23T14:27:09;23.80;99.90
21123;DHT22;10719;48.130;11.630;2022-07-23T14:29:35;23.80;99.90
21123;DHT22;10719;48.130;11.630;2022-07-23T14:32:02;23.90;99.90
21123;DHT22;10719;48.130;11.630;2022-07-23T14:34:28;23.80;99.90
21123;DHT22;10719;48.130;11.630;2022-07-23T14:36:53;24.00;99.90
21123;DHT22;10719;48.130;11.630;2022-07-23T14:39:19;24.00;99.90
21123;DHT22;10719;48.130;11.630;2022-07-23T14:41:45;24.10;99.90
21123;DHT22;10719;48.130;11.630;2022-07-23T14:44:10;24.10;99.90
21123;DHT22;10719;48.130;11.630;2022-07-23T14:46:36;24.10;99.90
21123;DHT22;10719;48.130;11.630;2022-07-23T14:49:02;24.20;99.90
21123;DHT22;10719;48.130;11.630;2022-07-23T14:51:28;24.30;99.90
21123;DHT22;10719;48.130;11.630;2022-07-23T14:53:54;24.30;99.90
21123;DHT22;10719;48.130;11.630;2022-07-23T14:56:20;24.30;99.90
21123;DHT22;10719;48.130;11.630;2022-07-23T14:58:45;24.60;99.90
21123;DHT22;10719;48.130;11.630;2022-07-23T15:01:11;25.00;99.90
21123;DHT22;10719;48.130;11.630;2022-07-23T15:03:37;25.10;99.90
21123;DHT22;10719;48.130;11.630;2022-07-23T15:06:03;24.80;99.90
21123;DHT22;10719;48.130;11.630;2022-07-23T15:08:29;24.50;99.90
21123;DHT22;10719;48.130;11.630;2022-07-23T15:10:54;24.40;99.90
21123;DHT22;10719;48.130;11.630;2022-07-23T15:13:20;24.30;99.90
21123;DHT22;10719;48.130;11.630;2022-07-23T15:15:46;24.30;99.90
21123;DHT22;10719;48.130;11.630;2022-07-23T15:18:12;24.30;99.90
21123;DHT22;10719;48.130;11.630;2022-07-23T15:20:38;24.30;99.90
21123;DHT22;10719;48.130;11.630;2022-07-23T15:23:04;24.60;99.90
21123;DHT22;10719;48.130;11.630;2022-07-23T15:25:30;25.00;99.90
21123;DHT22;10719;48.130;11.630;2022-07-23T15:27:58;25.50;99.90
21123;DHT22;10719;48.130;11.630;2022-07-23T15:30:25;25.60;99.90
21123;DHT22;10719;48.130;11.630;2022-07-23T15:32:54;25.70;99.90
21123;DHT22;10719;48.130;11.630;2022-07-23T15:35:20;25.30;99.90
21123;DHT22;10719;48.130;11.630;2022-07-23T15:37:46;25.30;99.90
21123;DHT22;10719;48.130;11.630;2022-07-23T15:40:12;25.40;99.90
21123;DHT22;10719;48.130;11.630;2022-07-23T15:42:37;25.90;99.90
21123;DHT22;10719;48.130;11.630;2022-07-23T15:45:04;26.40;99.90
21123;DHT22;10719;48.130;11.630;2022-07-23T15:47:30;26.30;99.90
21123;DHT22;10719;48.130;11.630;2022-07-23T15:49:56;26.00;99.90
21123;DHT22;10719;48.130;11.630;2022-07-23T15:52:22;26.20;99.90
21123;DHT22;10719;48.130;11.630;2022-07-23T15:54:49;26.40;99.90